createdAt,value
2023-02-07T00:02:09.156Z,3.87
2023-02-07T00:05:11.952Z,3.79
2023-02-07T00:08:15.094Z,3.73
2023-02-07T00:11:20.286Z,3.69
2023-02-07T00:14:22.913Z,3.66
2023-02-07T00:17:25.480Z,3.64
2023-02-07T00:20:28.006Z,3.63
2023-02-07T00:23:30.588Z,3.56
2023-02-07T00:26:34.469Z,3.60
2023-02-07T00:29:37.215Z,3.59
2023-02-07T00:32:39.739Z,3.59
2023-02-07T00:35:42.409Z,3.58
2023-02-07T00:38:45.244Z,3.55
2023-02-07T00:41:49.130Z,3.54
2023-02-07T00:44:51.657Z,3.51
2023-02-07T00:47:54.241Z,3.49
2023-02-07T00:50:56.988Z,3.47
2023-02-07T00:53:59.526Z,3.45
2023-02-07T00:57:03.461Z,3.44
2023-02-07T01:00:07.046Z,3.42
2023-02-07T01:03:09.649Z,3.41
2023-02-07T01:06:12.280Z,3.43
2023-02-07T01:09:14.860Z,3.41
2023-02-07T01:12:18.774Z,3.36
2023-02-07T01:15:21.556Z,3.24
2023-02-07T01:18:24.132Z,3.18
2023-02-07T01:21:27.177Z,3.08
2023-02-07T01:24:29.751Z,2.99
2023-02-07T01:27:33.780Z,2.88
2023-02-07T01:30:36.381Z,2.81
2023-02-07T01:33:39.120Z,2.77
2023-02-07T01:36:41.673Z,2.74
2023-02-07T01:39:44.285Z,2.71
2023-02-07T01:42:48.216Z,2.67
2023-02-07T01:45:50.734Z,2.63
2023-02-07T01:48:55.405Z,2.61
2023-02-07T01:51:59.826Z,2.60
2023-02-07T01:55:05.341Z,2.60
2023-02-07T01:58:09.278Z,2.58
2023-02-07T02:01:14.679Z,2.54
2023-02-07T02:04:17.204Z,2.50
2023-02-07T02:07:19.787Z,2.44
2023-02-07T02:10:23.436Z,2.39
2023-02-07T02:13:30.121Z,2.33
2023-02-07T02:16:35.847Z,2.25
2023-02-07T02:19:52.768Z,2.19
2023-02-07T02:23:07.107Z,2.17
2023-02-07T02:26:40.509Z,2.13
2023-02-07T02:30:03.780Z,2.11
2023-02-07T02:33:21.917Z,2.12
2023-02-07T02:36:28.772Z,2.08
2023-02-07T02:39:33.603Z,2.05
2023-02-07T02:42:38.457Z,2.05
2023-02-07T02:45:43.500Z,2.04
2023-02-07T02:48:47.443Z,2.06
2023-02-07T02:51:50.794Z,2.08
2023-02-07T02:54:53.319Z,2.08
2023-02-07T02:58:02.178Z,2.08
2023-02-07T03:01:09.175Z,2.05
2023-02-07T03:04:27.346Z,2.09
2023-02-07T03:07:40.480Z,2.12
2023-02-07T03:10:47.314Z,2.12
2023-02-07T03:13:56.157Z,2.11
2023-02-07T03:16:59.619Z,2.06
2023-02-07T03:20:06.218Z,2.04
2023-02-07T03:23:08.791Z,2.03
2023-02-07T03:26:11.358Z,2.00
2023-02-07T03:29:14.342Z,1.99
2023-02-07T03:32:17.497Z,1.98
2023-02-07T03:35:39.205Z,1.95
2023-02-07T03:38:41.969Z,1.95
2023-02-07T03:41:47.556Z,1.94
2023-02-07T03:44:50.152Z,1.93
2023-02-07T03:47:52.765Z,1.92
2023-02-07T03:50:56.649Z,1.94
2023-02-07T03:53:59.209Z,1.93
2023-02-07T03:57:01.731Z,1.92
2023-02-07T04:00:04.850Z,1.89
2023-02-07T04:03:07.452Z,1.88
2023-02-07T04:06:11.777Z,1.88
2023-02-07T04:09:14.321Z,1.84
2023-02-07T04:12:16.971Z,1.86
2023-02-07T04:15:19.548Z,1.85
2023-02-07T04:18:22.116Z,1.83
2023-02-07T04:21:26.073Z,1.80
2023-02-07T04:24:31.690Z,1.79
2023-02-07T04:27:34.282Z,1.77
2023-02-07T04:30:36.899Z,1.77
2023-02-07T04:33:39.517Z,1.72
2023-02-07T04:36:43.649Z,1.62
2023-02-07T04:39:46.871Z,1.57
2023-02-07T04:42:49.395Z,1.54
2023-02-07T04:45:51.951Z,1.54
2023-02-07T04:48:54.580Z,1.54
2023-02-07T04:51:58.530Z,1.56
2023-02-07T04:55:01.100Z,1.56
2023-02-07T04:58:03.753Z,1.58
2023-02-07T05:01:06.426Z,1.59
2023-02-07T05:04:09.095Z,1.60
2023-02-07T05:07:13.042Z,1.57
2023-02-07T05:10:15.672Z,1.59
2023-02-07T05:13:18.276Z,1.56
2023-02-07T05:16:21.000Z,1.53
2023-02-07T05:19:23.777Z,1.55
2023-02-07T05:22:27.728Z,1.55
2023-02-07T05:25:30.308Z,1.53
2023-02-07T05:28:32.837Z,1.51
2023-02-07T05:31:53.197Z,1.50
2023-02-07T05:34:55.857Z,1.48
2023-02-07T05:37:59.809Z,1.47
2023-02-07T05:41:02.381Z,1.46
2023-02-07T05:44:04.929Z,1.45
2023-02-07T05:47:07.454Z,1.42
2023-02-07T05:50:10.256Z,1.43
2023-02-07T05:53:14.138Z,1.45
2023-02-07T05:56:16.718Z,1.49
2023-02-07T05:59:19.338Z,1.51
2023-02-07T06:02:21.951Z,1.51
2023-02-07T06:05:24.814Z,1.52
2023-02-07T06:08:28.781Z,1.53
2023-02-07T06:11:31.319Z,1.53
2023-02-07T06:14:33.891Z,1.47
2023-02-07T06:17:36.430Z,1.43
2023-02-07T06:20:39.023Z,1.43
2023-02-07T06:23:42.917Z,1.36
2023-02-07T06:26:46.709Z,1.32
2023-02-07T06:29:49.341Z,1.35
2023-02-07T06:32:51.921Z,1.37
2023-02-07T06:35:55.857Z,1.39
2023-02-07T06:38:59.788Z,1.38
2023-02-07T06:42:02.340Z,1.38
2023-02-07T06:45:05.073Z,1.39
2023-02-07T06:48:07.836Z,1.38
2023-02-07T06:51:10.416Z,1.36
2023-02-07T06:54:14.377Z,1.33
2023-02-07T06:57:16.900Z,1.27
2023-02-07T07:00:21.866Z,1.24
2023-02-07T07:03:28.702Z,1.24
2023-02-07T07:06:31.256Z,1.22
2023-02-07T07:09:35.145Z,1.23
2023-02-07T07:12:37.751Z,1.25
2023-02-07T07:15:40.610Z,1.27
2023-02-07T07:18:43.258Z,1.31
2023-02-07T07:21:45.790Z,1.32
2023-02-07T07:24:50.192Z,1.35
2023-02-07T07:27:53.417Z,1.41
2023-02-07T07:30:56.041Z,1.44
2023-02-07T07:33:59.004Z,1.46
2023-02-07T07:37:01.535Z,1.45
2023-02-07T07:40:06.181Z,1.45
2023-02-07T07:43:08.769Z,1.46
2023-02-07T07:46:11.338Z,1.48
2023-02-07T07:49:13.922Z,1.50
2023-02-07T07:52:16.497Z,1.43
2023-02-07T07:55:20.528Z,1.40
2023-02-07T07:58:24.186Z,1.37
2023-02-07T08:01:26.772Z,1.37
2023-02-07T08:04:29.365Z,1.33
2023-02-07T08:07:31.952Z,1.35
2023-02-07T08:10:35.971Z,1.36
2023-02-07T08:13:38.598Z,1.35
2023-02-07T08:16:41.181Z,1.40
2023-02-07T08:19:43.740Z,1.40
2023-02-07T08:22:46.269Z,1.36
2023-02-07T08:25:50.610Z,1.26
2023-02-07T08:28:53.233Z,1.20
2023-02-07T08:31:55.805Z,1.21
2023-02-07T08:34:58.329Z,1.20
2023-02-07T08:38:00.912Z,1.20
2023-02-07T08:41:04.997Z,1.26
2023-02-07T08:44:07.522Z,1.27
2023-02-07T08:47:10.087Z,1.31
2023-02-07T08:50:13.062Z,1.36
2023-02-07T08:53:15.778Z,1.44
2023-02-07T08:56:19.691Z,1.45
2023-02-07T08:59:22.279Z,1.51
2023-02-07T09:02:24.959Z,1.53
2023-02-07T09:05:27.555Z,1.41
2023-02-07T09:08:30.127Z,1.33
2023-02-07T09:11:34.179Z,1.36
2023-02-07T09:14:36.789Z,1.41
2023-02-07T09:17:39.319Z,1.42
2023-02-07T09:20:41.899Z,1.41
2023-02-07T09:23:44.494Z,1.42
2023-02-07T09:26:48.384Z,1.41
2023-02-07T09:29:50.920Z,1.43
2023-02-07T09:32:53.440Z,1.46
2023-02-07T09:35:56.050Z,1.44
2023-02-07T09:38:58.731Z,1.46
2023-02-07T09:42:08.725Z,1.43
2023-02-07T09:45:13.139Z,1.51
2023-02-07T09:48:17.482Z,1.52
2023-02-07T09:51:20.638Z,1.53
2023-02-07T09:54:24.550Z,1.52
2023-02-07T09:57:29.618Z,1.59
2023-02-07T10:00:32.836Z,1.70
2023-02-07T10:03:36.035Z,1.85
2023-02-07T10:06:38.567Z,1.94
2023-02-07T10:09:42.001Z,2.08
2023-02-07T10:12:59.339Z,2.16
2023-02-07T10:16:11.526Z,2.29
2023-02-07T10:19:19.794Z,2.36
2023-02-07T10:22:25.413Z,2.47
2023-02-07T10:25:33.860Z,2.62
2023-02-07T10:28:49.496Z,2.70
2023-02-07T10:31:53.637Z,2.56
2023-02-07T10:34:57.265Z,2.73
2023-02-07T10:38:01.954Z,2.80
2023-02-07T10:41:05.642Z,2.96
2023-02-07T10:44:11.044Z,3.04
2023-02-07T10:47:15.144Z,2.97
2023-02-07T10:50:29.456Z,3.05
2023-02-07T10:53:54.235Z,3.06
2023-02-07T10:57:02.241Z,3.11
2023-02-07T11:00:26.815Z,3.27
2023-02-07T11:03:30.827Z,3.50
2023-02-07T11:06:34.122Z,3.88
2023-02-07T11:09:38.147Z,4.19
2023-02-07T11:12:46.183Z,4.53
2023-02-07T11:15:55.481Z,4.80
2023-02-07T11:18:59.282Z,5.05
2023-02-07T11:22:09.559Z,5.21
2023-02-07T11:25:12.173Z,5.31
2023-02-07T11:28:17.678Z,5.53
2023-02-07T11:31:26.735Z,5.60
2023-02-07T11:34:41.118Z,5.74
2023-02-07T11:37:48.458Z,5.66
2023-02-07T11:40:52.308Z,5.62
2023-02-07T11:43:56.933Z,5.60
2023-02-07T11:47:04.518Z,5.58
2023-02-07T11:50:07.477Z,5.78
2023-02-07T11:53:24.245Z,6.01
2023-02-07T11:56:28.204Z,6.30
2023-02-07T11:59:32.191Z,6.50
2023-02-07T12:02:36.213Z,6.55
2023-02-07T12:05:40.152Z,6.54
2023-02-07T12:08:42.991Z,6.43
2023-02-07T12:11:45.582Z,6.39
2023-02-07T12:14:50.470Z,6.47
2023-02-07T12:17:58.762Z,6.56
2023-02-07T12:21:03.414Z,6.61
2023-02-07T12:24:08.544Z,6.72
2023-02-07T12:27:14.635Z,6.81
2023-02-07T12:30:18.942Z,6.85
2023-02-07T12:33:27.268Z,6.97
2023-02-07T12:36:32.655Z,7.14
2023-02-07T12:39:36.832Z,7.38
2023-02-07T12:42:40.307Z,7.59
2023-02-07T12:45:54.975Z,7.75
2023-02-07T12:49:14.170Z,7.82
2023-02-07T12:52:21.438Z,7.96
2023-02-07T12:55:30.034Z,8.02
2023-02-07T12:58:42.832Z,7.99
2023-02-07T13:01:46.795Z,7.93
2023-02-07T13:05:02.137Z,7.83
2023-02-07T13:08:11.125Z,7.64
2023-02-07T13:11:20.550Z,7.61
2023-02-07T13:14:31.907Z,7.65
2023-02-07T13:17:46.285Z,7.69
2023-02-07T13:20:58.856Z,7.85
2023-02-07T13:24:02.351Z,7.93
2023-02-07T13:27:06.932Z,7.92
2023-02-07T13:30:13.660Z,8.05
2023-02-07T13:33:25.880Z,8.12
2023-02-07T13:36:36.601Z,7.95
2023-02-07T13:39:43.728Z,7.89
2023-02-07T13:42:47.809Z,7.89
2023-02-07T13:45:53.319Z,7.85
2023-02-07T13:48:57.383Z,7.75
2023-02-07T13:52:03.105Z,7.69
2023-02-07T13:55:11.333Z,7.55
2023-02-07T13:59:05.367Z,7.46
2023-02-07T14:02:13.495Z,7.53
2023-02-07T14:05:21.559Z,7.63
2023-02-07T14:08:25.499Z,7.70
2023-02-07T14:11:34.325Z,7.65
2023-02-07T14:14:37.844Z,7.66
2023-02-07T14:17:59.789Z,7.56
2023-02-07T14:21:02.548Z,7.48
2023-02-07T14:24:34.408Z,7.39
2023-02-07T14:27:38.016Z,7.23
2023-02-07T14:31:00.334Z,7.06
2023-02-07T14:34:13.851Z,7.18
2023-02-07T14:37:22.236Z,7.11
2023-02-07T14:40:31.483Z,7.10
2023-02-07T14:43:42.216Z,7.08
2023-02-07T14:46:48.988Z,6.99
2023-02-07T14:49:52.241Z,7.00
2023-02-07T14:52:54.835Z,6.83
2023-02-07T14:56:01.472Z,6.75
2023-02-07T14:59:03.989Z,6.74
2023-02-07T15:02:35.182Z,6.70
2023-02-07T15:05:38.821Z,6.48
2023-02-07T15:08:41.344Z,6.39
2023-02-07T15:11:47.752Z,6.28
2023-02-07T15:14:53.008Z,6.20
2023-02-07T15:17:57.192Z,6.05
2023-02-07T15:20:59.740Z,5.90
2023-02-07T15:24:04.642Z,5.91
2023-02-07T15:27:19.973Z,5.88
2023-02-07T15:30:22.524Z,5.85
2023-02-07T15:33:25.783Z,5.78
2023-02-07T15:36:31.246Z,5.68
2023-02-07T15:39:33.828Z,5.57
2023-02-07T15:42:37.713Z,5.53
2023-02-07T15:45:40.717Z,5.48
2023-02-07T15:48:48.668Z,5.45
2023-02-07T15:51:51.185Z,5.48
2023-02-07T15:54:54.478Z,5.57
2023-02-07T15:57:58.394Z,5.66
2023-02-07T16:01:02.512Z,5.69
2023-02-07T16:04:05.149Z,5.65
2023-02-07T16:07:13.458Z,5.56
2023-02-07T16:10:20.312Z,5.53
2023-02-07T16:13:24.544Z,5.51
2023-02-07T16:16:27.915Z,5.52
2023-02-07T16:19:30.911Z,5.49
2023-02-07T16:22:33.805Z,5.35
2023-02-07T16:25:36.889Z,5.21
2023-02-07T16:28:40.784Z,5.07
2023-02-07T16:31:43.692Z,5.02
2023-02-07T16:34:58.980Z,4.95
2023-02-07T16:38:02.328Z,4.86
2023-02-07T16:41:05.135Z,4.81
2023-02-07T16:44:17.859Z,4.77
2023-02-07T16:47:21.465Z,4.77
2023-02-07T16:50:25.040Z,4.80
2023-02-07T16:53:27.746Z,4.76
2023-02-07T16:56:30.276Z,4.75
2023-02-07T16:59:34.165Z,4.77
2023-02-07T17:02:36.725Z,4.78
2023-02-07T17:05:39.274Z,4.83
2023-02-07T17:08:41.873Z,4.85
2023-02-07T17:11:44.416Z,4.92
2023-02-07T17:14:48.294Z,4.97
2023-02-07T17:17:52.597Z,4.97
2023-02-07T17:20:55.909Z,4.96
2023-02-07T17:23:59.304Z,4.95
2023-02-07T17:27:01.832Z,4.91
2023-02-07T17:30:11.280Z,4.86
2023-02-07T17:33:13.820Z,4.85
2023-02-07T17:36:16.746Z,4.83
2023-02-07T17:39:19.486Z,4.79
2023-02-07T17:42:22.007Z,4.71
2023-02-07T17:45:26.280Z,4.65
2023-02-07T17:48:30.335Z,4.59
2023-02-07T17:51:32.910Z,4.57
2023-02-07T17:54:35.468Z,4.55
2023-02-07T17:57:38.059Z,4.51
2023-02-07T18:00:42.297Z,4.47
2023-02-07T18:03:45.058Z,4.47
2023-02-07T18:06:47.922Z,4.45
2023-02-07T18:09:50.492Z,4.44
2023-02-07T18:12:53.033Z,4.43
2023-02-07T18:15:57.583Z,4.37
2023-02-07T18:19:00.218Z,4.32
2023-02-07T18:22:02.746Z,4.28
2023-02-07T18:25:05.736Z,4.27
2023-02-07T18:28:08.321Z,4.26
2023-02-07T18:31:13.387Z,4.22
2023-02-07T18:34:17.188Z,4.17
2023-02-07T18:37:21.111Z,4.15
2023-02-07T18:40:23.640Z,4.12
2023-02-07T18:43:26.246Z,4.10
2023-02-07T18:46:31.677Z,4.09
2023-02-07T18:49:34.494Z,4.07
2023-02-07T18:52:37.034Z,4.05
2023-02-07T18:55:39.574Z,4.00
2023-02-07T18:58:42.175Z,3.87
2023-02-07T19:01:48.172Z,3.73
2023-02-07T19:04:50.849Z,3.60
2023-02-07T19:07:55.025Z,3.45
2023-02-07T19:10:58.027Z,3.30
2023-02-07T19:14:00.569Z,3.17
2023-02-07T19:17:04.493Z,3.08
2023-02-07T19:20:07.748Z,3.03
2023-02-07T19:23:10.331Z,2.97
2023-02-07T19:26:12.931Z,2.93
2023-02-07T19:29:15.922Z,2.89
2023-02-07T19:32:19.902Z,2.96
2023-02-07T19:35:22.447Z,3.05
2023-02-07T19:38:24.964Z,3.13
2023-02-07T19:41:28.305Z,3.19
2023-02-07T19:44:30.948Z,3.27
2023-02-07T19:47:34.895Z,3.32
2023-02-07T19:50:38.036Z,3.35
2023-02-07T19:53:41.007Z,3.40
2023-02-07T19:56:43.547Z,3.45
2023-02-07T19:59:48.258Z,3.49
2023-02-07T20:02:52.257Z,3.52
2023-02-07T20:05:54.780Z,3.49
2023-02-07T20:08:57.440Z,3.48
2023-02-07T20:11:59.981Z,3.46
2023-02-07T20:15:02.581Z,3.45
2023-02-07T20:18:06.634Z,3.44
2023-02-07T20:21:11.737Z,3.45
2023-02-07T20:24:14.406Z,3.44
2023-02-07T20:27:16.989Z,3.43
2023-02-07T20:30:19.657Z,3.41
2023-02-07T20:33:23.960Z,3.40
2023-02-07T20:36:26.811Z,3.33
2023-02-07T20:39:31.845Z,3.27
2023-02-07T20:42:34.392Z,3.27
2023-02-07T20:45:36.945Z,3.23
2023-02-07T20:48:40.909Z,3.20
2023-02-07T20:51:44.254Z,3.15
2023-02-07T20:54:47.645Z,3.11
2023-02-07T20:57:50.234Z,3.05
2023-02-07T21:00:52.880Z,3.00
2023-02-07T21:03:58.012Z,2.88
2023-02-07T21:07:01.045Z,2.89
2023-02-07T21:10:03.867Z,2.84
2023-02-07T21:13:06.635Z,2.78
2023-02-07T21:16:09.276Z,2.77
2023-02-07T21:19:13.236Z,2.74
2023-02-07T21:22:15.766Z,2.71
2023-02-07T21:25:18.450Z,2.66
2023-02-07T21:28:21.109Z,2.63
2023-02-07T21:31:23.787Z,2.61
2023-02-07T21:34:27.694Z,2.58
2023-02-07T21:37:30.278Z,2.54
2023-02-07T21:40:32.831Z,2.54
2023-02-07T21:43:35.607Z,2.53
2023-02-07T21:46:39.273Z,2.52
2023-02-07T21:49:44.725Z,2.47
2023-02-07T21:52:47.425Z,2.46
2023-02-07T21:55:50.012Z,2.43
2023-02-07T21:58:54.137Z,2.35
2023-02-07T22:01:58.042Z,2.30
2023-02-07T22:05:01.942Z,2.24
2023-02-07T22:08:04.462Z,2.21
2023-02-07T22:11:08.499Z,2.20
2023-02-07T22:14:11.944Z,2.20
2023-02-07T22:17:14.482Z,2.19
2023-02-07T22:20:18.446Z,2.19
2023-02-07T22:23:20.972Z,2.18
2023-02-07T22:26:23.920Z,2.14
2023-02-07T22:29:26.505Z,2.16
2023-02-07T22:32:29.076Z,2.18
2023-02-07T22:35:37.379Z,2.21
2023-02-07T22:38:39.936Z,2.20
2023-02-07T22:41:42.511Z,2.22
2023-02-07T22:44:45.081Z,2.23
2023-02-07T22:47:47.662Z,2.23
2023-02-07T22:50:51.591Z,2.18
2023-02-07T22:53:54.881Z,2.15
2023-02-07T22:56:57.467Z,2.13
2023-02-07T23:00:00.901Z,2.07
2023-02-07T23:03:03.433Z,2.01
2023-02-07T23:06:07.826Z,1.96
2023-02-07T23:09:10.766Z,1.90
2023-02-07T23:12:13.348Z,1.83
2023-02-07T23:15:15.888Z,1.77
2023-02-07T23:18:18.453Z,1.74
2023-02-07T23:21:22.575Z,1.69
2023-02-07T23:24:25.158Z,1.61
2023-02-07T23:27:27.947Z,1.54
2023-02-07T23:30:30.615Z,1.45
2023-02-07T23:33:33.207Z,1.39
2023-02-07T23:36:37.165Z,1.27
2023-02-07T23:39:39.688Z,1.32
2023-02-07T23:42:42.211Z,1.29
2023-02-07T23:45:44.790Z,1.23
2023-02-07T23:48:47.421Z,1.22
2023-02-07T23:51:51.332Z,1.17
2023-02-07T23:54:53.917Z,1.13
2023-02-07T23:57:56.493Z,1.07
